San Antonio, Texas
Traffic Map
Current Weather Conditions
San Antonio, Texas
Overcast
Overcast
65°
Feels Like: 65°
Wind Chill: 65° Ceiling: 1300
Heat Index: 65° Visibility: 10mi
Dew Point: 55° Wind: 0mph
Humidity: 70% Direction: ° ()
Pressure: 30.07in Gusts: 0mph
Raw Report DataKSAT 172051Z 00000KT 10SM OVC013 18/13 A3007 RMK AO2 SLP169 60000 T01830128 56026 $
Traffic Incident Summary
Active as of:
Severity:
Category:
InformationThere was an issue retrieving the traffic information for this location. Please try a different location or try again shortly.
Advertisements